In Rescue
 
Open Full Screen Window  High Contrast Mode
January 28, 2020 11:50 PM CST
Weather Information
Wind Direction
  ---
Wind Speed
  00 kt (0 mph)
Wind Gust
  00 kt (0 mph)
Altimeter
30.14 in
Visibility
10 SM
Temperature
-14° C
F
Dewpoint
-15° C
F
Humidity
92%
1hr Rain Fall
00.00 in.
24hr Rain Fall
00.00 in.
Sky Condition
Clear
VFR

METAR KFSE 290550Z AUTO 00000KT 10SM CLR M14/M15 A3014 RMK AO2

FAA Disclaimer: The data displayed is for advisory purposes only and is not to be used for flight planning or operations.